Time;durP1;ratioP1;P1;durP2;ratioP2;P2;SDS_P1;SDS_P2;PMS_P1;PMS_P2;Temp;Humidity;BMP_temperature;BMP_pressure;BME280_temperature;BME280_humidity;BME280_pressure;Samples;Min_cycle;Max_cycle;Signal;HPM_P1;HPM_P2
2022/03/20 18:20:45;;;;;;;57.10;37.47;;;7.50;99.90;;;;;;5134325;27;1288349;-79
2022/03/20 18:23:11;;;;;;;53.13;39.38;;;7.10;99.90;;;;;;5139932;27;20436;-78
2022/03/20 18:25:39;;;;;;;56.55;39.83;;;7.00;99.90;;;;;;5125537;27;20483;-79
2022/03/20 18:28:06;;;;;;;58.92;40.45;;;6.90;99.90;;;;;;5116672;27;20035;-79
2022/03/20 18:30:33;;;;;;;56.15;41.33;;;6.90;99.90;;;;;;5132642;27;20042;-79
2022/03/20 18:33:00;;;;;;;55.35;40.65;;;6.90;99.90;;;;;;5124186;27;20078;-78
2022/03/20 18:35:28;;;;;;;56.72;42.63;;;6.80;99.90;;;;;;5127338;27;20054;-79
2022/03/20 18:37:56;;;;;;;56.47;40.35;;;6.70;99.90;;;;;;5126084;27;20068;-79
2022/03/20 18:40:22;;;;;;;58.38;43.58;;;6.70;99.90;;;;;;5150773;27;20070;-79
2022/03/20 18:42:48;;;;;;;54.90;40.88;;;6.60;99.90;;;;;;5150053;27;20117;-79
2022/03/20 18:45:14;;;;;;;54.40;40.47;;;6.50;99.90;;;;;;5131105;27;20146;-79
2022/03/20 18:47:42;;;;;;;54.60;40.75;;;6.50;99.90;;;;;;5133680;27;20526;-79
2022/03/20 18:50:10;;;;;;;55.63;41.13;;;6.40;99.90;;;;;;5151182;27;20129;-79
2022/03/20 18:52:40;;;;;;;56.05;42.50;;;6.40;99.90;;;;;;5143213;27;20057;-78
2022/03/20 18:55:07;;;;;;;57.05;42.30;;;6.30;99.90;;;;;;5150842;27;20071;-78
2022/03/20 18:57:34;;;;;;;58.72;42.78;;;6.20;99.90;;;;;;5150080;27;20047;-76
2022/03/20 19:00:01;;;;;;;53.10;39.40;;;6.20;99.90;;;;;;5144524;27;20054;-79
2022/03/20 19:02:27;;;;;;;60.80;44.55;;;6.10;99.90;;;;;;5150432;27;20110;-79
2022/03/20 19:04:52;;;;;;;57.42;41.92;;;6.10;99.90;;;;;;5148266;27;20459;-79
2022/03/20 19:07:19;;;;;;;55.22;40.50;;;6.00;99.90;;;;;;5114859;27;20043;-79
2022/03/20 19:09:47;;;;;;;58.35;41.75;;;6.00;99.90;;;;;;5096563;27;20463;-79
2022/03/20 19:12:14;;;;;;;59.78;42.58;;;5.90;99.90;;;;;;5114490;27;20047;-79
2022/03/20 19:14:40;;;;;;;57.65;43.65;;;5.80;99.90;;;;;;5128286;27;20054;-79
2022/03/20 19:17:06;;;;;;;58.50;43.25;;;5.80;99.90;;;;;;5117028;27;20122;-79
2022/03/20 19:19:31;;;;;;;60.60;42.53;;;5.70;99.90;;;;;;5135671;27;20086;-79
2022/03/20 19:21:57;;;;;;;57.50;41.78;;;5.70;99.90;;;;;;5130782;27;20046;-80
2022/03/20 19:24:25;;;;;;;59.20;43.17;;;5.60;99.90;;;;;;5147155;27;20035;-78
2022/03/20 19:26:51;;;;;;;59.05;43.63;;;5.70;99.90;;;;;;5134101;27;20509;-81
2022/03/20 19:29:17;;;;;;;56.50;42.15;;;5.60;99.90;;;;;;5129888;27;20102;-78
2022/03/20 19:31:43;;;;;;;56.95;41.90;;;5.60;99.90;;;;;;5135336;27;20467;-79
2022/03/20 19:39:57;;;;;;;62.95;42.75;;;5.40;99.90;;;;;;5135755;27;20038;-79
2022/03/20 19:42:25;;;;;;;65.43;44.45;;;5.40;99.90;;;;;;5126224;27;20565;-79
2022/03/20 19:44:50;;;;;;;57.85;42.45;;;5.30;99.90;;;;;;5116708;27;20047;-78
2022/03/20 19:47:17;;;;;;;60.10;43.50;;;5.30;99.90;;;;;;5099527;27;20394;-80
2022/03/20 19:49:43;;;;;;;60.95;46.17;;;5.30;99.90;;;;;;5152576;27;20035;-79
2022/03/20 19:52:10;;;;;;;59.00;43.53;;;5.30;99.90;;;;;;5114601;27;20482;-79
2022/03/20 19:54:36;;;;;;;62.03;45.75;;;5.20;99.90;;;;;;5132029;27;20467;-79
2022/03/20 19:57:03;;;;;;;61.38;45.58;;;5.20;99.90;;;;;;5130947;27;20091;-79
2022/03/20 19:59:29;;;;;;;61.22;45.58;;;5.20;99.90;;;;;;5132331;27;20042;-79
2022/03/20 20:01:55;;;;;;;60.85;44.95;;;5.10;99.90;;;;;;5134708;27;20047;-81
2022/03/20 20:04:23;;;;;;;65.90;46.95;;;5.20;99.90;;;;;;5124593;27;20051;-79
2022/03/20 20:06:50;;;;;;;64.82;45.38;;;5.10;99.90;;;;;;5136485;27;20066;-80
2022/03/20 20:09:17;;;;;;;65.57;46.13;;;5.10;99.90;;;;;;5134988;27;20043;-80
2022/03/20 20:11:44;;;;;;;61.33;46.25;;;5.00;99.90;;;;;;5111951;27;20486;-76
2022/03/20 20:16:55;;;;;;;63.67;46.33;;;5.00;99.90;;;;;;5132891;27;20573;-79
2022/03/20 20:19:21;;;;;;;;;;;4.90;99.90;;;;;;5123536;27;20055;-78
2022/03/20 20:21:47;;;;;;;;;;;4.80;99.90;;;;;;5130362;27;20014;-78
2022/03/20 20:24:13;;;;;;;;;;;4.90;99.90;;;;;;5132766;27;20418;-79
2022/03/20 20:26:39;;;;;;;;;;;4.80;99.90;;;;;;5115782;27;19946;-79
2022/03/20 20:29:05;;;;;;;;;;;4.70;99.90;;;;;;5118311;27;19919;-78
2022/03/20 20:31:30;;;;;;;;;;;4.70;99.90;;;;;;5136176;27;19919;-77
2022/03/20 20:33:56;;;;;;;;;;;4.70;99.90;;;;;;5119908;27;19930;-77
2022/03/20 20:36:21;;;;;;;;;;;4.70;99.90;;;;;;5133796;27;20284;-79
2022/03/20 20:38:47;;;;;;;;;;;4.70;99.90;;;;;;5097984;27;19975;-77
2022/03/20 20:41:13;;;;;;;;;;;4.60;99.90;;;;;;5125942;27;19919;-78
2022/03/20 20:43:39;;;;;;;;;;;4.60;99.90;;;;;;5136232;27;19923;-77
2022/03/20 20:46:05;;;;;;;;;;;4.60;99.90;;;;;;5134956;27;19926;-78
2022/03/20 20:48:30;;;;;;;;;;;4.50;99.90;;;;;;5116186;27;19919;-79
2022/03/20 20:50:56;;;;;;;;;;;4.60;99.90;;;;;;5129275;27;19930;-79
2022/03/20 20:53:22;;;;;;;;;;;4.50;99.90;;;;;;5116520;27;20370;-78
2022/03/20 20:55:48;;;;;;;;;;;4.50;99.90;;;;;;5102899;27;19972;-77
2022/03/20 20:58:13;;;;;;;;;;;4.40;99.90;;;;;;5133220;27;19971;-78
2022/03/20 21:00:39;;;;;;;;;;;4.30;99.90;;;;;;5147867;27;19948;-79
2022/03/20 21:03:05;;;;;;;;;;;4.20;99.90;;;;;;5111704;27;20244;-79
2022/03/20 21:05:31;;;;;;;;;;;4.10;99.90;;;;;;5128083;27;19922;-79
2022/03/20 21:10:56;;;;;;;;;;;4.20;99.90;;;;;;5130993;27;20282;-79
2022/03/20 21:13:22;;;;;;;;;;;4.20;99.90;;;;;;5132347;27;19922;-78
2022/03/20 21:15:47;;;;;;;;;;;4.20;99.90;;;;;;5133144;27;19926;-78
2022/03/20 21:18:13;;;;;;;;;;;4.10;99.90;;;;;;5131787;27;19923;-79
2022/03/20 21:20:39;;;;;;;;;;;4.10;99.90;;;;;;5130530;27;20289;-78
2022/03/20 21:23:05;;;;;;;;;;;4.20;99.90;;;;;;5127767;27;20397;-79
2022/03/20 21:25:30;;;;;;;;;;;4.10;99.90;;;;;;5134627;27;19919;-82
2022/03/20 21:27:58;;;;;;;;;;;4.10;99.90;;;;;;5094316;27;20551;-80
2022/03/20 21:30:24;;;;;;;;;;;4.10;99.90;;;;;;5110293;27;19967;-79
2022/03/20 21:32:50;;;;;;;;;;;4.00;99.90;;;;;;5130976;27;20017;-78
2022/03/20 21:35:16;;;;;;;;;;;4.00;99.90;;;;;;5111756;27;19927;-79
2022/03/20 21:37:43;;;;;;;;;;;3.90;99.90;;;;;;5109225;27;19930;-79
2022/03/20 21:40:10;;;;;;;;;;;4.00;99.90;;;;;;5107015;27;19922;-79
2022/03/20 21:42:37;;;;;;;;;;;4.00;99.90;;;;;;5134936;27;19927;-80
2022/03/20 21:45:03;;;;;;;;;;;4.10;99.90;;;;;;5099627;27;20375;-79
2022/03/20 21:47:28;;;;;;;;;;;4.00;99.90;;;;;;5113398;27;20006;-78
2022/03/20 21:49:54;;;;;;;;;;;4.00;99.90;;;;;;5120737;27;20002;-79
2022/03/20 21:52:21;;;;;;;;;;;4.00;99.90;;;;;;5120219;27;20286;-79
2022/03/20 21:54:47;;;;;;;;;;;4.00;99.90;;;;;;5123085;27;20305;-80
2022/03/20 21:57:13;;;;;;;;;;;3.90;99.90;;;;;;5128095;27;19919;-78
2022/03/20 21:59:38;;;;;;;;;;;3.90;99.90;;;;;;5115139;27;19942;-78
2022/03/20 22:02:04;;;;;;;;;;;3.90;99.90;;;;;;5145399;27;19968;-77
2022/03/20 22:04:29;;;;;;;;;;;3.80;99.90;;;;;;5117215;27;19972;-78
2022/03/20 22:06:55;;;;;;;;;;;3.80;99.90;;;;;;5121845;27;19922;-78
2022/03/20 22:09:24;;;;;;;;;;;3.80;99.90;;;;;;5123735;27;20277;-77
2022/03/20 22:11:50;;;;;;;;;;;3.90;99.90;;;;;;5121766;27;20419;-78
2022/03/20 22:14:18;;;;;;;;;;;3.90;99.90;;;;;;5103168;28;19996;-79
2022/03/20 22:16:44;;;;;;;;;;;3.90;99.90;;;;;;5126032;27;19926;-78
2022/03/20 22:19:10;;;;;;;;;;;3.90;99.90;;;;;;5097642;27;20873;-79
2022/03/20 22:21:36;;;;;;;;;;;3.90;99.90;;;;;;5114344;27;20424;-78
2022/03/20 22:24:01;;;;;;;;;;;3.90;99.90;;;;;;5122140;27;20389;-78
2022/03/20 22:26:27;;;;;;;;;;;3.90;99.90;;;;;;5104931;28;19920;-77
2022/03/20 22:28:53;;;;;;;;;;;3.90;99.90;;;;;;5128647;27;19919;-77
2022/03/20 22:31:19;;;;;;;;;;;3.90;99.90;;;;;;5125153;28;19927;-78
2022/03/20 22:33:45;;;;;;;;;;;3.90;99.90;;;;;;5114740;27;19927;-78
2022/03/20 22:38:57;;;;;;;;;;;3.80;99.90;;;;;;5113871;28;19920;-81
2022/03/20 22:41:26;;;;;;;;;;;3.70;99.90;;;;;;5122745;28;19923;-78
2022/03/20 22:43:52;;;;;;;;;;;3.60;99.90;;;;;;5114925;27;19938;-78
2022/03/20 22:46:20;;;;;;;;;;;3.50;99.90;;;;;;5098761;27;19919;-77
2022/03/20 22:51:30;;;;;;;;;;;3.40;99.90;;;;;;5114041;28;20362;-77
2022/03/20 22:53:56;;;;;;;;;;;3.40;99.90;;;;;;5104332;27;19970;-78
2022/03/20 22:56:21;;;;;;;;;;;3.40;99.90;;;;;;5123270;27;19984;-78
2022/03/20 22:58:47;;;;;;;;;;;3.30;99.90;;;;;;5143011;27;19969;-78
2022/03/20 23:01:13;;;;;;;;;;;3.30;99.90;;;;;;5120985;27;20379;-78
2022/03/20 23:03:38;;;;;;;;;;;3.30;99.90;;;;;;5119541;27;19942;-80
2022/03/20 23:06:05;;;;;;;;;;;3.30;99.90;;;;;;5118253;27;19930;-79
2022/03/20 23:08:30;;;;;;;;;;;3.40;99.90;;;;;;5119199;27;19927;-78
2022/03/20 23:10:56;;;;;;;;;;;3.40;99.90;;;;;;5101784;27;19923;-78
2022/03/20 23:13:22;;;;;;;;;;;3.40;99.90;;;;;;5100753;27;19919;-78
2022/03/20 23:15:49;;;;;;;;;;;3.30;99.90;;;;;;5101354;27;19926;-78
2022/03/20 23:18:15;;;;;;;;;;;3.30;99.90;;;;;;5125507;27;19918;-79
2022/03/20 23:20:41;;;;;;;;;;;3.30;99.90;;;;;;5114756;27;20733;-78
2022/03/20 23:23:07;;;;;;;;;;;3.30;99.90;;;;;;5114411;27;19969;-79
2022/03/20 23:25:32;;;;;;;;;;;3.30;99.90;;;;;;5122335;27;20016;-78
2022/03/20 23:27:58;;;;;;;;;;;3.30;99.90;;;;;;5115286;27;19927;-78
2022/03/20 23:30:24;;;;;;;;;;;3.30;99.90;;;;;;5118736;27;19938;-78
2022/03/20 23:32:50;;;;;;;;;;;3.40;99.90;;;;;;5116134;27;19919;-78
2022/03/20 23:35:17;;;;;;;;;;;3.40;99.90;;;;;;5117256;27;19919;-78
2022/03/20 23:37:44;;;;;;;;;;;3.30;99.90;;;;;;5110725;27;19926;-78
2022/03/20 23:40:09;;;;;;;;;;;3.30;99.90;;;;;;5115627;27;19927;-78
2022/03/20 23:45:20;;;;;;;;;;;3.20;99.90;;;;;;5118112;27;19988;-78
2022/03/20 23:47:46;;;;;;;;;;;3.20;99.90;;;;;;5113223;27;19923;-78
2022/03/20 23:50:12;;;;;;;;;;;3.20;99.90;;;;;;5115197;27;19927;-78
2022/03/20 23:52:42;;;;;;;;;;;3.10;99.90;;;;;;5133844;27;19926;-77
2022/03/20 23:55:08;;;;;;;;;;;3.10;99.90;;;;;;5131827;27;20380;-78
2022/03/20 23:57:34;;;;;;;;;;;3.10;99.90;;;;;;5120184;27;19977;-78
2022/03/20 23:59:59;;;;;;;;;;;3.10;99.90;;;;;;5123494;27;19923;-78
